Time,TemperatureF,DewpointF,PressureIn,WindDirection,WindDirectionDegrees,WindSpeedMPH,WindSpeedGustMPH,Humidity,HourlyPrecipIn,Conditions,Clouds,dailyrainin,SoftwareType,DateUTC
2013-07-20 00:02:00,73.0,73.0,30.11,West,260,0.0,0.0,100,0.03,,,0.01,,2013-07-20 04:02:00,
2013-07-20 00:44:00,73.0,73.0,30.11,West,260,0.0,0.0,100,0.01,,,2.57,,2013-07-20 04:44:00,
2013-07-20 01:32:00,73.0,73.0,30.11,West,260,0.0,0.0,100,0.00,,,2.57,,2013-07-20 05:32:00,
2013-07-20 01:52:00,73.0,73.0,30.10,West,260,0.0,0.0,100,0.00,,,2.57,,2013-07-20 05:52:00,
2013-07-20 02:32:00,73.0,73.0,30.09,West,260,0.0,0.0,100,0.00,,,2.57,,2013-07-20 06:32:00,
2013-07-20 02:43:00,73.0,73.0,30.09,West,260,0.0,0.0,100,0.00,,,2.57,,2013-07-20 06:43:00,
2013-07-20 02:52:00,73.0,73.0,30.09,West,260,0.0,0.0,100,0.00,,,2.57,,2013-07-20 06:52:00,
2013-07-20 03:01:00,73.0,73.0,30.09,West,260,0.0,0.0,100,0.00,,,2.57,,2013-07-20 07:01:00,
2013-07-20 03:12:00,73.0,73.0,30.08,West,260,0.0,0.0,100,0.00,,,2.57,,2013-07-20 07:12:00,
2013-07-20 03:22:00,73.0,73.0,30.08,West,260,0.0,0.0,100,0.00,,,2.57,,2013-07-20 07:22:00,
2013-07-20 03:33:00,73.0,73.0,30.08,West,260,0.0,0.0,100,0.00,,,2.57,,2013-07-20 07:33:00,
2013-07-20 03:44:00,73.0,73.0,30.07,West,260,0.0,0.0,100,0.00,,,2.57,,2013-07-20 07:44:00,
2013-07-20 03:53:00,73.0,73.0,30.07,West,260,0.0,0.0,100,0.00,,,2.57,,2013-07-20 07:53:00,
2013-07-20 04:02:00,73.0,73.0,30.07,West,260,0.0,0.0,100,0.00,,,2.57,,2013-07-20 08:02:00,
2013-07-20 04:11:00,73.0,73.0,30.07,West,260,0.0,0.0,100,0.00,,,2.57,,2013-07-20 08:11:00,
2013-07-20 04:22:00,73.0,73.0,30.07,West,260,0.0,0.0,100,0.00,,,2.57,,2013-07-20 08:22:00,
2013-07-20 04:32:00,73.0,73.0,30.07,West,260,0.0,0.0,100,0.00,,,2.57,,2013-07-20 08:32:00,
2013-07-20 04:44:00,73.0,73.0,30.06,West,260,0.0,0.0,100,0.00,,,2.57,,2013-07-20 08:44:00,
2013-07-20 04:52:00,73.0,73.0,30.06,West,260,0.0,0.0,100,0.00,,,2.57,,2013-07-20 08:52:00,
2013-07-20 05:02:00,73.0,73.0,30.06,West,260,0.0,0.0,100,0.00,,,2.57,,2013-07-20 09:02:00,
2013-07-20 05:11:00,73.0,73.0,30.06,West,260,0.0,0.0,100,0.00,,,2.57,,2013-07-20 09:11:00,
2013-07-20 05:22:00,73.0,73.0,30.06,West,260,0.0,0.0,100,0.00,,,2.57,,2013-07-20 09:22:00,
2013-07-20 05:43:00,72.0,72.0,30.06,West,260,0.0,0.0,100,0.00,,,2.57,,2013-07-20 09:43:00,
2013-07-20 05:53:00,72.0,72.0,30.06,West,260,0.0,0.0,100,0.00,,,2.57,,2013-07-20 09:53:00,
2013-07-20 06:01:00,72.0,72.0,30.06,West,260,0.0,0.0,100,0.00,,,2.57,,2013-07-20 10:01:00,
2013-07-20 06:11:00,72.0,72.0,30.07,West,260,0.0,0.0,100,0.00,,,2.57,,2013-07-20 10:11:00,
2013-07-20 06:22:00,73.0,73.0,30.07,West,260,0.0,0.0,100,0.00,,,2.57,,2013-07-20 10:22:00,
2013-07-20 06:52:00,72.0,72.0,30.08,West,260,0.0,0.0,100,0.00,,,2.57,,2013-07-20 10:52:00,
2013-07-20 07:02:00,72.0,72.0,30.08,West,260,0.0,0.0,100,0.00,,,2.57,,2013-07-20 11:02:00,
2013-07-20 07:43:00,73.0,73.0,30.09,West,260,0.0,0.0,100,0.00,,,2.57,,2013-07-20 11:43:00,
2013-07-20 07:52:00,73.0,73.0,30.09,West,260,0.0,0.0,100,0.00,,,2.57,,2013-07-20 11:52:00,
2013-07-20 08:52:00,74.0,74.0,30.10,West,260,0.0,0.0,100,0.00,,,2.57,,2013-07-20 12:52:00,
2013-07-20 09:43:00,76.0,76.0,30.11,West,260,0.0,0.0,100,0.00,,,2.57,,2013-07-20 13:43:00,
2013-07-20 09:53:00,76.0,76.0,30.11,NE,49,0.0,0.0,100,0.00,,,2.57,,2013-07-20 13:53:00,
2013-07-20 10:11:00,78.0,78.0,30.11,SE,127,1.0,0.0,100,0.00,,,2.57,,2013-07-20 14:11:00,
2013-07-20 10:32:00,78.0,78.0,30.11,East,93,0.0,0.0,100,0.00,,,2.57,,2013-07-20 14:32:00,
2013-07-20 10:43:00,79.0,79.0,30.11,South,173,1.0,2.0,100,0.00,,,2.57,,2013-07-20 14:43:00,
2013-07-20 10:53:00,79.0,79.0,30.11,North,359,0.0,0.0,100,0.00,,,2.57,,2013-07-20 14:53:00,
2013-07-20 11:01:00,80.0,80.0,30.11,North,359,0.0,0.0,100,0.00,,,2.57,,2013-07-20 15:01:00,
2013-07-20 11:11:00,80.0,79.0,30.11,South,176,0.0,5.0,98,0.00,,,2.57,,2013-07-20 15:11:00,
2013-07-20 11:33:00,81.0,79.0,30.11,SSE,162,0.0,0.0,95,0.00,,,2.57,,2013-07-20 15:33:00,
2013-07-20 11:44:00,82.0,80.0,30.11,SW,225,0.0,0.0,93,0.00,,,2.57,,2013-07-20 15:44:00,
2013-07-20 11:53:00,83.0,79.0,30.11,South,190,7.0,0.0,88,0.00,,,2.57,,2013-07-20 15:53:00,
2013-07-20 12:01:00,84.0,79.0,30.11,South,190,0.0,0.0,85,0.00,,,2.57,,2013-07-20 16:01:00,
2013-07-20 12:11:00,85.0,77.0,30.11,South,190,0.0,0.0,78,0.00,,,2.57,,2013-07-20 16:11:00,
2013-07-20 12:22:00,85.0,77.0,30.11,South,184,0.0,0.0,77,0.00,,,2.57,,2013-07-20 16:22:00,
2013-07-20 12:32:00,85.0,76.0,30.11,South,184,0.0,0.0,75,0.00,,,2.57,,2013-07-20 16:32:00,
2013-07-20 12:43:00,85.0,76.0,30.11,South,184,0.0,0.0,74,0.00,,,2.57,,2013-07-20 16:43:00,
2013-07-20 12:52:00,86.0,76.0,30.11,South,184,0.0,0.0,72,0.00,,,2.57,,2013-07-20 16:52:00,
2013-07-20 13:02:00,86.0,75.0,30.11,South,184,0.0,0.0,70,0.00,,,2.57,,2013-07-20 17:02:00,
2013-07-20 13:11:00,86.0,75.0,30.10,South,184,0.0,0.0,70,0.00,,,2.57,,2013-07-20 17:11:00,
2013-07-20 13:22:00,86.0,75.0,30.10,South,184,0.0,0.0,70,0.00,,,2.57,,2013-07-20 17:22:00,
2013-07-20 13:32:00,87.0,75.0,30.09,South,186,6.0,6.0,68,0.00,,,2.57,,2013-07-20 17:32:00,
2013-07-20 13:43:00,88.0,73.0,30.09,North,359,0.0,0.0,62,0.00,,,2.57,,2013-07-20 17:43:00,
2013-07-20 13:53:00,88.0,74.0,30.08,North,359,0.0,0.0,64,0.00,,,2.57,,2013-07-20 17:53:00,
2013-07-20 14:01:00,88.0,74.0,30.08,North,359,0.0,0.0,63,0.00,,,2.57,,2013-07-20 18:01:00,
2013-07-20 14:12:00,87.0,73.0,30.07,North,359,0.0,0.0,64,0.00,,,2.57,,2013-07-20 18:12:00,
2013-07-20 14:24:00,88.0,74.0,30.07,North,359,0.0,0.0,64,0.00,,,2.57,,2013-07-20 18:24:00,
2013-07-20 14:36:00,89.0,73.0,30.06,North,359,0.0,0.0,59,0.00,,,2.57,,2013-07-20 18:36:00,
2013-07-20 14:46:00,89.0,73.0,30.06,SSE,162,0.0,0.0,60,0.00,,,2.57,,2013-07-20 18:46:00,
2013-07-20 14:55:00,90.0,74.0,30.06,SSW,197,4.0,0.0,60,0.00,,,2.57,,2013-07-20 18:55:00,
2013-07-20 15:05:00,90.0,74.0,30.06,SSW,197,0.0,0.0,59,0.00,,,2.57,,2013-07-20 19:05:00,
2013-07-20 15:15:00,89.0,74.0,30.05,North,359,1.0,0.0,61,0.00,,,2.57,,2013-07-20 19:15:00,
2013-07-20 15:26:00,89.0,73.0,30.04,NE,55,2.0,4.0,59,0.00,,,2.57,,2013-07-20 19:26:00,
2013-07-20 15:35:00,89.0,74.0,30.04,SSE,156,2.0,0.0,62,0.00,,,2.57,,2013-07-20 19:35:00,
2013-07-20 15:43:00,89.0,75.0,30.04,SSE,156,0.0,0.0,63,0.00,,,2.57,,2013-07-20 19:43:00,
2013-07-20 15:54:00,87.0,70.0,30.05,ENE,77,9.0,11.0,58,0.00,,,2.57,,2013-07-20 19:54:00,
2013-07-20 16:06:00,83.0,70.0,30.05,East,89,3.0,9.0,66,0.00,,,2.57,,2013-07-20 20:06:00,
2013-07-20 16:14:00,82.0,71.0,30.06,North,359,0.0,0.0,69,0.00,,,2.57,,2013-07-20 20:14:00,
2013-07-20 16:24:00,81.0,71.0,30.05,North,359,0.0,0.0,71,0.00,,,2.57,,2013-07-20 20:24:00,
2013-07-20 16:33:00,82.0,73.0,30.05,North,359,0.0,0.0,74,0.00,,,2.57,,2013-07-20 20:33:00,
2013-07-20 16:45:00,81.0,72.0,30.04,SE,127,2.0,0.0,74,0.00,,,2.57,,2013-07-20 20:45:00,
2013-07-20 16:56:00,81.0,72.0,30.04,SE,127,0.0,0.0,75,0.00,,,2.57,,2013-07-20 20:56:00,
2013-07-20 17:14:00,81.0,72.0,30.04,North,359,0.0,0.0,74,0.00,,,2.57,,2013-07-20 21:14:00,
2013-07-20 17:27:00,82.0,73.0,30.03,SSE,159,0.0,0.0,74,0.00,,,2.57,,2013-07-20 21:27:00,
2013-07-20 17:34:00,81.0,72.0,30.02,SE,127,0.0,0.0,74,0.00,,,2.57,,2013-07-20 21:34:00,
2013-07-20 17:45:00,81.0,72.0,30.02,SE,127,0.0,0.0,74,0.00,,,2.57,,2013-07-20 21:45:00,
2013-07-20 17:55:00,81.0,71.0,30.03,SE,141,0.0,0.0,72,0.00,,,2.57,,2013-07-20 21:55:00,
2013-07-20 18:06:00,80.0,70.0,30.04,North,359,0.0,0.0,72,0.00,,,2.57,,2013-07-20 22:06:00,
2013-07-20 18:16:00,80.0,71.0,30.04,North,359,0.0,0.0,73,0.00,,,2.57,,2013-07-20 22:16:00,
2013-07-20 18:34:00,80.0,71.0,30.05,SE,142,0.0,0.0,73,0.00,,,2.57,,2013-07-20 22:34:00,
2013-07-20 18:47:00,80.0,71.0,30.06,SE,142,0.0,0.0,74,0.00,,,2.57,,2013-07-20 22:47:00,
2013-07-20 18:55:00,79.0,70.0,30.06,SE,142,0.0,0.0,75,0.00,,,2.57,,2013-07-20 22:55:00,
2013-07-20 19:04:00,79.0,71.0,30.06,ENE,60,0.0,0.0,76,0.00,,,2.57,,2013-07-20 23:04:00,
2013-07-20 19:17:00,79.0,71.0,30.06,South,180,0.0,0.0,77,0.00,,,2.57,,2013-07-20 23:17:00,
2013-07-20 19:28:00,79.0,72.0,30.07,South,170,0.0,0.0,78,0.00,,,2.57,,2013-07-20 23:28:00,
2013-07-20 19:44:00,79.0,72.0,30.06,East,101,1.0,0.0,80,0.00,,,2.57,,2013-07-20 23:44:00,
2013-07-20 19:55:00,79.0,73.0,30.06,SSW,210,0.0,0.0,83,0.00,,,2.57,,2013-07-20 23:55:00,
2013-07-20 20:07:00,78.0,72.0,30.07,SSW,210,0.0,0.0,83,0.00,,,2.57,,2013-07-21 00:07:00,
2013-07-20 20:17:00,78.0,73.0,30.07,SSW,210,0.0,0.0,85,0.00,,,2.57,,2013-07-21 00:17:00,
2013-07-20 20:23:00,78.0,74.0,30.06,SSW,210,0.0,0.0,87,0.01,,,2.57,,2013-07-21 00:23:00,
2013-07-20 20:55:00,77.0,74.0,30.06,West,276,0.0,0.0,91,0.01,,,2.57,,2013-07-21 00:55:00,
2013-07-20 21:06:00,77.0,75.0,30.06,West,276,0.0,0.0,93,0.01,,,2.57,,2013-07-21 01:06:00,
2013-07-20 21:12:00,77.0,75.0,30.06,West,276,0.0,0.0,94,0.01,,,2.57,,2013-07-21 01:12:00,
2013-07-20 21:36:00,77.0,75.0,30.07,West,276,0.0,0.0,95,0.00,,,2.57,,2013-07-21 01:36:00,
2013-07-20 21:56:00,77.0,76.0,30.06,West,276,0.0,0.0,96,0.00,,,2.57,,2013-07-21 01:56:00,
2013-07-20 22:06:00,77.0,76.0,30.06,West,276,0.0,0.0,96,0.00,,,2.57,,2013-07-21 02:06:00,
2013-07-20 22:17:00,77.0,76.0,30.06,West,276,0.0,0.0,96,0.00,,,2.57,,2013-07-21 02:17:00,
2013-07-20 22:27:00,77.0,76.0,30.06,West,276,0.0,0.0,96,0.01,,,2.57,,2013-07-21 02:27:00,
2013-07-20 22:36:00,77.0,76.0,30.06,West,276,0.0,0.0,97,0.01,,,2.57,,2013-07-21 02:36:00,
2013-07-20 22:44:00,77.0,76.0,30.06,West,276,0.0,0.0,97,0.01,,,2.57,,2013-07-21 02:44:00,
2013-07-20 22:54:00,76.0,75.0,30.06,West,276,0.0,0.0,98,0.01,,,2.57,,2013-07-21 02:54:00,
2013-07-20 23:04:00,76.0,75.0,30.07,West,276,0.0,0.0,98,0.01,,,2.57,,2013-07-21 03:04:00,
2013-07-20 23:14:00,76.0,75.0,30.07,SE,128,1.0,0.0,98,0.01,,,2.57,,2013-07-21 03:14:00,
2013-07-20 23:25:00,76.0,75.0,30.07,South,184,0.0,0.0,98,0.00,,,2.57,,2013-07-21 03:25:00,
2013-07-20 23:36:00,76.0,75.0,30.08,South,184,0.0,0.0,98,0.00,,,2.57,,2013-07-21 03:36:00,
2013-07-20 23:44:00,76.0,75.0,30.07,South,184,0.0,0.0,98,0.00,,,2.57,,2013-07-21 03:44:00,
2013-07-20 23:56:00,76.0,75.0,30.08,South,184,0.0,0.0,98,0.00,,,2.57,,2013-07-21 03:56:00,